Time;durP1;ratioP1;P1;durP2;ratioP2;P2;SDS_P1;SDS_P2;PMS_P1;PMS_P2;Temp;Humidity;BMP_temperature;BMP_pressure;BME280_temperature;BME280_humidity;BME280_pressure;Samples;Min_cycle;Max_cycle;Signal;HPM_P1;HPM_P2
2022/01/20 00:02:22;;;;;;;34.58;27.85;;;;;;;8.85;63.68;101721.31;5002698;28;102791;-48
2022/01/20 00:05:05;;;;;;;33.90;28.40;;;;;;;8.85;63.55;101726.75;5003860;28;102273;-47
2022/01/20 00:26:24;;;;;;;30.60;26.35;;;;;;;8.84;64.11;101711.53;5008345;28;102052;-48
2022/01/20 00:28:55;;;;;;;34.30;27.63;;;;;;;8.84;63.62;101706.09;4988470;28;102206;-49
2022/01/20 00:34:31;;;;;;;33.05;26.27;;;;;;;8.82;64.41;101694.63;5009542;28;102888;-48
2022/01/20 00:39:31;;;;;;;31.55;25.73;;;;;;;8.83;63.75;101693.56;5011571;28;102606;-48
2022/01/20 00:41:58;;;;;;;31.75;25.77;;;;;;;8.83;63.60;101690.84;5016750;28;103752;-48
2022/01/20 00:44:25;;;;;;;28.90;24.95;;;;;;;8.83;64.48;101674.56;5016579;28;102550;-49
2022/01/20 00:46:52;;;;;;;30.80;25.33;;;;;;;8.83;63.43;101685.41;5007393;28;102153;-49
2022/01/20 00:49:20;;;;;;;30.27;25.15;;;;;;;8.84;64.15;101675.41;5016978;28;102184;-48
2022/01/20 00:51:47;;;;;;;29.15;25.50;;;;;;;8.82;63.56;101666.66;5001150;28;102957;-48
2022/01/20 00:54:14;;;;;;;31.42;25.90;;;;;;;8.83;64.31;101669.13;5013799;28;102392;-48
2022/01/20 00:56:41;;;;;;;29.30;25.35;;;;;;;8.83;64.30;101662.88;4991895;28;102742;-49
2022/01/20 00:59:08;;;;;;;29.63;25.65;;;;;;;8.83;64.33;101658.28;5013363;28;102261;-48
2022/01/20 01:01:34;;;;;;;29.85;25.75;;;;;;;8.83;63.71;101661.00;5013781;28;104110;-49
2022/01/20 01:04:02;;;;;;;27.23;24.33;;;;;;;8.83;64.04;101646.59;5012598;28;103019;-49
2022/01/20 01:09:11;;;;;;;28.38;24.05;;;;;;;8.81;63.98;101633.28;5015424;28;102185;-48
2022/01/20 01:11:39;;;;;;;29.55;24.95;;;;;;;8.83;63.99;101636.56;5013313;28;103943;-47
2022/01/20 01:14:07;;;;;;;27.52;24.20;;;;;;;8.83;63.59;101627.59;5007595;28;102278;-49
2022/01/20 01:24:39;;;;;;;27.35;23.92;;;;;;;8.82;64.21;101612.38;5009651;27;102065;-49
2022/01/20 01:27:07;;;;;;;29.75;24.60;;;;;;;8.82;63.88;101606.94;5014404;27;102390;-49
2022/01/20 01:30:05;;;;;;;27.52;23.55;;;;;;;8.82;63.68;101605.06;5013956;28;102185;-47
2022/01/20 01:35:33;;;;;;;30.67;23.63;;;;;;;8.81;64.42;101589.03;4955054;28;102173;-50
2022/01/20 01:40:34;;;;;;;25.80;23.15;;;;;;;8.81;64.18;101579.00;4995865;28;103949;-49
2022/01/20 01:43:06;;;;;;;27.33;22.58;;;;;;;8.80;63.85;101569.22;4991281;28;104082;-49
2022/01/20 01:45:36;;;;;;;27.75;24.23;;;;;;;8.81;63.55;101573.56;4977457;28;102905;-47
2022/01/20 01:48:04;;;;;;;26.15;23.10;;;;;;;8.81;64.09;101578.16;4994531;28;102140;-48
2022/01/20 01:50:31;;;;;;;27.45;24.50;;;;;;;8.81;64.33;101573.56;4992539;28;102241;-48
2022/01/20 01:53:01;;;;;;;27.42;22.83;;;;;;;8.81;63.32;101573.56;4992727;28;107840;-51
2022/01/20 01:55:28;;;;;;;29.30;24.40;;;;;;;8.80;63.54;101571.91;4993961;28;102053;-48
2022/01/20 01:57:55;;;;;;;28.00;23.92;;;;;;;8.80;63.86;101571.91;4978109;28;102238;-49
2022/01/20 02:00:21;;;;;;;27.00;23.63;;;;;;;8.81;63.53;101568.13;4990405;28;102586;-48
2022/01/20 02:02:49;;;;;;;28.88;22.95;;;;;;;8.80;64.20;101555.63;4989527;28;103851;-49
2022/01/20 02:05:18;;;;;;;25.85;22.80;;;;;;;8.80;63.84;101550.22;4988714;28;102231;-49
2022/01/20 02:18:51;;;;;;;26.80;22.75;;;;;;;8.80;63.92;101528.50;4986239;28;102644;-49
2022/01/20 02:21:19;;;;;;;27.58;22.60;;;;;;;8.80;64.74;101520.34;4991139;28;102488;-50
2022/01/20 02:23:47;;;;;;;25.42;22.48;;;;;;;8.78;63.53;101514.31;4993368;28;103916;-48
2022/01/20 02:26:13;;;;;;;26.48;22.98;;;;;;;8.80;63.62;101508.63;4993390;28;102248;-50
2022/01/20 02:28:40;;;;;;;26.27;23.45;;;;;;;8.79;64.13;101515.97;4991563;28;103033;-49
2022/01/20 02:31:07;;;;;;;25.90;23.13;;;;;;;8.80;64.22;101505.94;4989366;28;102231;-48
2022/01/20 02:33:34;;;;;;;28.58;24.70;;;;;;;8.79;64.39;101505.09;4992998;28;103924;-48
2022/01/20 02:36:06;;;;;;;27.23;24.33;;;;;;;8.79;63.85;101494.25;4987531;28;102366;-48
2022/01/20 02:46:32;;;;;;;25.90;22.75;;;;;;;8.79;63.85;101477.16;5008347;28;102552;-49
2022/01/20 02:48:59;;;;;;;25.70;23.00;;;;;;;8.79;63.62;101477.97;5001627;28;102284;-48
2022/01/20 02:51:25;;;;;;;25.85;23.02;;;;;;;8.79;63.47;101477.97;5001517;28;102432;-48
2022/01/20 02:53:54;;;;;;;25.42;22.67;;;;;;;8.78;63.41;101470.91;5011285;28;103968;-50
2022/01/20 02:56:21;;;;;;;26.02;22.27;;;;;;;8.79;64.03;101471.72;5009599;28;102736;-47
2022/01/20 02:58:47;;;;;;;24.98;21.73;;;;;;;8.79;64.51;101472.53;5006343;28;102651;-48
2022/01/20 03:01:14;;;;;;;23.80;21.23;;;;;;;8.80;63.87;101457.06;5009967;28;102611;-49
2022/01/20 03:03:40;;;;;;;23.63;21.13;;;;;;;8.79;63.69;101450.00;5003009;28;104114;-49
2022/01/20 03:06:07;;;;;;;23.30;20.20;;;;;;;8.78;63.87;101446.47;5009777;28;102405;-48
2022/01/20 03:08:36;;;;;;;23.98;21.33;;;;;;;8.79;64.15;101439.97;5008439;28;105582;-49
2022/01/20 03:11:04;;;;;;;23.58;21.08;;;;;;;8.78;63.98;101432.91;5005799;28;102211;-48
2022/01/20 03:13:30;;;;;;;23.00;20.60;;;;;;;8.79;63.93;101439.16;5001982;28;104063;-48
2022/01/20 03:15:57;;;;;;;25.60;21.00;;;;;;;8.78;63.38;101437.50;5011970;28;102368;-48
2022/01/20 03:18:23;;;;;;;24.15;21.52;;;;;;;8.78;64.59;101432.91;4997904;28;102429;-48
2022/01/20 03:20:49;;;;;;;22.73;20.13;;;;;;;8.79;63.55;101436.44;5010389;28;102263;-48
2022/01/20 03:23:16;;;;;;;23.70;20.58;;;;;;;8.78;64.20;101427.47;5003066;28;103872;-50
2022/01/20 03:25:42;;;;;;;22.85;20.25;;;;;;;8.78;63.69;101427.47;4999263;28;102864;-49
2022/01/20 03:28:10;;;;;;;23.02;20.30;;;;;;;8.79;63.78;101428.28;5012046;28;103284;-48
2022/01/20 03:30:37;;;;;;;24.52;20.83;;;;;;;8.78;64.09;101427.47;5013345;28;102225;-48
2022/01/20 03:33:03;;;;;;;24.13;21.50;;;;;;;8.78;64.27;101422.03;5002033;28;103937;-48
2022/01/20 03:35:31;;;;;;;25.33;22.35;;;;;;;8.78;64.34;101408.47;5009033;28;102561;-48
2022/01/20 03:37:58;;;;;;;24.77;22.17;;;;;;;8.78;63.57;101411.19;5008755;28;102423;-49
2022/01/20 03:40:24;;;;;;;24.40;20.98;;;;;;;8.78;63.88;101408.47;4996446;28;104892;-48
2022/01/20 03:42:51;;;;;;;23.17;20.73;;;;;;;8.78;64.14;101413.91;5007105;28;104916;-48
2022/01/20 03:45:19;;;;;;;23.27;20.63;;;;;;;8.78;64.20;101416.63;5005536;28;102391;-48
2022/01/20 03:47:45;;;;;;;22.10;19.73;;;;;;;8.78;63.87;101408.47;5012729;28;102076;-51
2022/01/20 03:50:59;;;;;;;22.27;19.88;;;;;;;8.77;63.62;101398.69;5013279;28;102243;-48
2022/01/20 03:52:59;;;;;;;25.27;20.92;;;;;;;8.78;64.29;101389.47;5013289;28;104067;-48
2022/01/20 03:55:25;;;;;;;22.05;19.65;;;;;;;8.77;64.29;101393.28;4981051;28;106185;-48
2022/01/20 03:57:51;;;;;;;23.30;19.48;;;;;;;8.77;64.02;101387.03;5002708;28;102631;-49
2022/01/20 04:00:19;;;;;;;21.95;18.95;;;;;;;8.77;63.96;101385.13;5013507;27;102506;-48
2022/01/20 04:02:46;;;;;;;20.23;18.08;;;;;;;8.78;64.71;101386.75;5010841;28;104039;-49
2022/01/20 04:05:12;;;;;;;21.15;18.70;;;;;;;8.78;64.00;101375.09;5001112;27;102199;-48
2022/01/20 04:07:39;;;;;;;20.95;18.75;;;;;;;8.78;63.71;101372.38;5013631;28;101927;-47
2022/01/20 04:10:05;;;;;;;20.83;18.63;;;;;;;8.77;64.27;101371.56;5008976;27;102704;-49
2022/01/20 04:12:32;;;;;;;22.30;19.90;;;;;;;8.77;63.39;101379.69;5010701;28;105649;-47
2022/01/20 04:15:06;;;;;;;22.70;19.20;;;;;;;8.77;63.84;101376.97;5010701;28;102295;-49
2022/01/20 04:17:39;;;;;;;21.40;19.08;;;;;;;8.78;63.62;101375.91;5012229;28;102264;-49
2022/01/20 04:20:07;;;;;;;21.77;18.80;;;;;;;8.77;63.70;101376.97;5012007;28;102172;-48
2022/01/20 04:22:33;;;;;;;22.13;19.27;;;;;;;8.77;63.67;101376.97;5002882;28;104311;-49
2022/01/20 04:24:59;;;;;;;22.20;19.70;;;;;;;8.77;63.69;101382.41;5013564;28;102685;-49
2022/01/20 04:27:26;;;;;;;22.05;18.50;;;;;;;8.77;63.91;101371.56;5003090;28;103475;-49
2022/01/20 04:29:52;;;;;;;20.65;18.10;;;;;;;8.78;63.83;101369.66;5013532;28;102382;-48
2022/01/20 04:32:19;;;;;;;20.73;18.08;;;;;;;8.77;63.79;101359.88;5009447;28;104216;-49
2022/01/20 04:34:47;;;;;;;21.15;18.27;;;;;;;8.77;64.13;101360.69;5004550;28;102414;-49
2022/01/20 04:37:14;;;;;;;18.70;16.73;;;;;;;8.76;64.45;101353.59;4964685;28;102258;-49
2022/01/20 04:39:46;;;;;;;21.58;18.10;;;;;;;8.77;64.00;101352.56;4968700;28;102307;-49
2022/01/20 04:42:13;;;;;;;20.77;18.40;;;;;;;8.76;64.57;101337.31;4965423;28;108022;-49
2022/01/20 04:44:57;;;;;;;21.02;18.45;;;;;;;8.77;63.69;101344.41;4973523;28;102377;-48
2022/01/20 04:47:42;;;;;;;20.23;17.13;;;;;;;8.77;63.64;101341.72;4969096;28;102055;-49
2022/01/20 04:58:37;;;;;;;20.92;17.75;;;;;;;8.77;64.31;101344.41;4953672;28;102180;-48
2022/01/20 05:01:04;;;;;;;21.48;17.50;;;;;;;8.76;64.28;101342.75;4955778;28;102543;-49
2022/01/20 05:03:31;;;;;;;21.02;17.52;;;;;;;8.76;63.97;101337.31;4947191;28;103860;-48
2022/01/20 05:05:59;;;;;;;20.73;18.35;;;;;;;8.76;64.66;101326.47;4946829;28;102055;-48
2022/01/20 05:08:28;;;;;;;22.48;17.58;;;;;;;8.76;63.61;101331.91;4948782;28;102230;-47
2022/01/20 05:10:55;;;;;;;;;;;;;;;8.77;64.01;101332.75;4954862;28;102326;-49
2022/01/20 05:13:37;;;;;;;22.33;17.63;;;;;;;8.77;64.46;101333.56;4950105;28;103906;-49
2022/01/20 05:16:04;;;;;;;20.70;16.85;;;;;;;8.76;64.39;101331.91;4951094;28;102329;-49
2022/01/20 05:18:31;;;;;;;19.67;17.55;;;;;;;8.76;63.83;101317.50;4951477;28;102402;-48
2022/01/20 05:20:59;;;;;;;20.27;17.50;;;;;;;8.77;64.12;101322.72;4949048;28;102242;-48
2022/01/20 05:23:26;;;;;;;19.10;16.42;;;;;;;8.76;64.66;101321.03;4943293;28;103932;-48
2022/01/20 05:25:52;;;;;;;21.13;17.08;;;;;;;8.76;64.15;101321.03;4943341;28;104246;-47
2022/01/20 05:28:19;;;;;;;19.90;17.23;;;;;;;8.76;63.99;101321.03;4949729;28;102172;-48
2022/01/20 05:30:46;;;;;;;19.48;16.88;;;;;;;8.75;64.65;101313.16;4949803;28;102885;-48
2022/01/20 05:33:14;;;;;;;19.65;16.45;;;;;;;8.76;64.01;101312.91;4940281;28;103218;-48
2022/01/20 05:35:41;;;;;;;19.55;17.20;;;;;;;8.76;64.49;101320.22;4960301;28;102386;-49
2022/01/20 05:38:11;;;;;;;19.30;16.60;;;;;;;8.75;63.58;101303.13;4991235;27;102835;-48
2022/01/20 05:40:38;;;;;;;19.77;17.63;;;;;;;8.77;64.21;101306.41;5012059;28;103332;-50
2022/01/20 05:43:05;;;;;;;18.25;16.20;;;;;;;8.76;64.44;101304.75;5010045;28;103928;-48
2022/01/20 05:45:31;;;;;;;19.52;16.33;;;;;;;8.76;64.53;101304.75;5004389;28;102436;-49
2022/01/20 05:48:10;;;;;;;18.73;16.73;;;;;;;8.76;64.32;101306.66;5003631;28;102879;-48
2022/01/20 05:50:37;;;;;;;;;;;;;;;8.76;64.78;101307.47;5009808;28;102357;-49
2022/01/20 05:53:05;;;;;;;19.17;16.10;;;;;;;8.77;64.80;101305.59;5009368;28;103913;-48
2022/01/20 05:55:33;;;;;;;20.38;17.35;;;;;;;8.77;64.77;101303.72;5008082;28;102431;-50
2022/01/20 05:58:00;;;;;;;19.73;16.13;;;;;;;8.78;64.65;101302.63;5014118;28;103652;-48
2022/01/20 06:00:27;;;;;;;18.67;16.13;;;;;;;8.77;64.68;101290.13;5002826;28;103500;-48
2022/01/20 06:05:39;;;;;;;18.27;15.55;;;;;;;8.78;64.73;101290.97;4985740;28;103543;-49
2022/01/20 06:08:06;;;;;;;19.15;15.93;;;;;;;8.78;63.83;101297.22;4986084;28;102421;-49
2022/01/20 06:10:35;;;;;;;17.77;14.85;;;;;;;8.78;64.39;101297.22;5009462;27;102201;-53
2022/01/20 06:13:02;;;;;;;17.85;15.77;;;;;;;8.79;64.81;101292.59;5008738;28;104013;-49
2022/01/20 06:15:29;;;;;;;18.85;16.38;;;;;;;8.78;63.98;101297.22;4999371;28;102788;-50
2022/01/20 06:17:56;;;;;;;17.52;15.52;;;;;;;8.78;63.99;101291.78;5001807;28;102115;-48
2022/01/20 06:20:23;;;;;;;18.27;15.80;;;;;;;8.79;64.66;101292.59;4996402;28;103597;-49
2022/01/20 06:22:49;;;;;;;18.90;16.45;;;;;;;8.79;63.83;101293.41;5011402;28;104106;-49
2022/01/20 06:25:15;;;;;;;17.80;15.90;;;;;;;8.80;63.86;101294.22;5008087;28;102376;-49
2022/01/20 06:27:43;;;;;;;17.02;15.30;;;;;;;8.80;64.18;101286.94;5007812;28;102280;-48
2022/01/20 06:30:12;;;;;;;19.37;15.67;;;;;;;8.79;64.53;101285.28;5012529;28;102373;-49
2022/01/20 06:32:39;;;;;;;18.17;15.50;;;;;;;8.81;64.37;101279.63;5004874;28;104062;-48
2022/01/20 06:35:06;;;;;;;16.38;14.65;;;;;;;8.80;63.94;101272.53;5010526;28;103810;-49
2022/01/20 06:37:35;;;;;;;18.17;15.77;;;;;;;8.80;64.01;101267.09;5013017;28;102269;-48
2022/01/20 06:40:02;;;;;;;17.08;14.73;;;;;;;8.81;64.23;101268.75;5011215;28;102385;-49
2022/01/20 06:42:28;;;;;;;17.90;14.95;;;;;;;8.80;64.11;101254.38;5007577;28;103944;-47
2022/01/20 06:44:56;;;;;;;16.83;15.02;;;;;;;8.79;64.07;101255.41;5007525;28;102512;-48
2022/01/20 06:47:23;;;;;;;18.67;15.88;;;;;;;8.80;64.49;101262.50;5000611;28;102187;-50
2022/01/20 06:49:49;;;;;;;17.75;15.80;;;;;;;8.81;64.30;101266.88;5006633;28;102532;-49
2022/01/20 06:52:15;;;;;;;17.27;14.45;;;;;;;8.80;64.53;101262.50;5008897;28;104323;-48
2022/01/20 06:54:42;;;;;;;15.93;14.23;;;;;;;8.80;64.23;101259.81;5005717;28;102148;-48
2022/01/20 06:57:09;;;;;;;18.88;14.93;;;;;;;8.81;64.10;101257.91;5008690;28;103073;-48
2022/01/20 06:59:36;;;;;;;15.73;13.95;;;;;;;8.82;64.31;101254.13;5006561;28;102268;-49
2022/01/20 07:02:04;;;;;;;16.95;14.15;;;;;;;8.81;64.99;101247.06;5005176;28;103388;-48
2022/01/20 07:04:32;;;;;;;16.77;14.73;;;;;;;8.83;63.96;101242.19;5006091;28;102240;-49
2022/01/20 07:06:58;;;;;;;18.52;15.15;;;;;;;8.82;64.16;101238.66;5008700;28;102296;-49
2022/01/20 07:09:25;;;;;;;17.33;15.02;;;;;;;8.83;64.16;101234.84;5008296;28;102368;-48
2022/01/20 07:11:51;;;;;;;16.23;14.48;;;;;;;8.83;64.42;101223.19;4995631;28;104149;-48
2022/01/20 07:14:19;;;;;;;17.55;14.77;;;;;;;8.83;63.81;101212.31;5005567;28;102333;-49
2022/01/20 07:16:47;;;;;;;16.65;14.70;;;;;;;8.82;64.59;101208.78;5020415;28;102540;-48
2022/01/20 07:19:16;;;;;;;15.85;14.15;;;;;;;8.83;64.84;101212.31;5011941;28;103129;-49
2022/01/20 07:21:43;;;;;;;17.52;14.15;;;;;;;8.83;64.06;101215.84;5000252;28;107481;-48
2022/01/20 07:24:11;;;;;;;16.70;14.60;;;;;;;8.83;64.00;101215.84;4985061;28;102166;-48
2022/01/20 07:26:38;;;;;;;16.48;14.68;;;;;;;8.84;64.47;101219.41;4991889;28;102256;-50
2022/01/20 07:29:05;;;;;;;19.55;14.38;;;;;;;8.84;64.12;101214.81;4993175;28;102967;-48
2022/01/20 07:31:32;;;;;;;17.55;14.30;;;;;;;8.83;64.53;101213.13;4989974;28;103952;-49
2022/01/20 07:33:58;;;;;;;17.52;14.60;;;;;;;8.83;64.35;101202.28;4987337;28;102352;-49
2022/01/20 07:36:26;;;;;;;16.70;14.45;;;;;;;8.84;64.58;101212.09;4983351;28;102202;-49
2022/01/20 07:38:53;;;;;;;17.25;14.45;;;;;;;8.84;64.74;101216.69;4991502;28;102693;-48
2022/01/20 07:41:20;;;;;;;16.08;14.32;;;;;;;8.85;64.95;101218.34;4981760;28;103909;-48
2022/01/20 07:43:46;;;;;;;17.30;14.18;;;;;;;8.83;64.50;101205.00;4982398;28;102095;-49
2022/01/20 07:46:13;;;;;;;17.65;14.15;;;;;;;8.84;63.75;101203.94;4981966;28;102112;-48
2022/01/20 07:48:39;;;;;;;17.42;14.35;;;;;;;8.85;64.01;101205.59;4983519;28;102719;-49
2022/01/20 07:51:06;;;;;;;17.63;14.52;;;;;;;8.85;64.33;101196.63;4982841;28;103921;-48
2022/01/20 07:53:34;;;;;;;18.05;14.27;;;;;;;8.85;64.67;101189.31;4986540;28;102306;-49
2022/01/20 07:56:01;;;;;;;16.73;13.70;;;;;;;8.84;64.10;101182.25;4992731;28;102229;-49
2022/01/20 07:58:28;;;;;;;14.80;13.18;;;;;;;8.84;64.15;101171.38;4987594;28;102660;-49
2022/01/20 08:00:55;;;;;;;16.00;13.00;;;;;;;8.84;64.53;101165.97;4979352;28;104487;-47
2022/01/20 08:03:21;;;;;;;16.98;13.75;;;;;;;8.84;64.19;101171.38;4979088;28;102738;-49
2022/01/20 08:05:48;;;;;;;16.25;12.90;;;;;;;8.85;64.60;101183.88;4971618;28;102113;-49
2022/01/20 08:08:14;;;;;;;15.13;13.00;;;;;;;8.85;63.97;101173.03;4992362;28;102903;-48
2022/01/20 08:10:42;;;;;;;14.73;12.15;;;;;;;8.85;64.69;101166.78;4986418;28;103968;-48
2022/01/20 08:13:08;;;;;;;15.68;13.13;;;;;;;8.85;63.92;101170.31;4990415;28;103298;-48
2022/01/20 08:15:35;;;;;;;15.40;12.82;;;;;;;8.85;64.45;101164.06;4986663;28;102363;-48
2022/01/20 08:18:03;;;;;;;14.07;12.05;;;;;;;8.86;64.64;101157.56;4985231;28;102212;-48
2022/01/20 08:20:30;;;;;;;13.18;11.70;;;;;;;8.85;64.48;101151.31;4982973;28;104334;-49
2022/01/20 08:22:57;;;;;;;13.90;11.25;;;;;;;8.85;64.71;101143.16;4981563;28;103488;-48
2022/01/20 08:25:25;;;;;;;15.77;12.25;;;;;;;8.85;64.04;101145.88;4983310;28;102268;-46
2022/01/20 08:27:54;;;;;;;15.15;11.77;;;;;;;8.86;64.90;101152.13;4982303;28;102173;-49
2022/01/20 08:30:22;;;;;;;15.93;11.43;;;;;;;8.86;63.77;101154.84;4980133;28;104010;-48
2022/01/20 08:32:49;;;;;;;13.53;10.87;;;;;;;8.85;63.88;101150.50;4996081;28;102099;-48
2022/01/20 08:35:16;;;;;;;14.32;11.38;;;;;;;8.85;64.02;101145.88;5006121;28;103015;-48
2022/01/20 08:37:45;;;;;;;12.75;10.80;;;;;;;8.85;64.51;101148.59;4999401;28;103616;-48
2022/01/20 08:40:14;;;;;;;13.50;11.40;;;;;;;8.85;64.41;101154.03;4983208;28;103955;-49
2022/01/20 08:42:44;;;;;;;13.43;11.20;;;;;;;8.85;64.24;101139.63;4978179;28;102245;-49
2022/01/20 08:45:14;;;;;;;13.30;10.90;;;;;;;8.84;63.57;101133.38;4983560;28;102430;-48
2022/01/20 08:47:42;;;;;;;13.45;10.77;;;;;;;8.84;63.88;101122.53;4982606;28;103692;-48
2022/01/20 08:50:10;;;;;;;14.45;11.80;;;;;;;8.85;63.49;101137.72;4982055;28;104316;-49
2022/01/20 08:52:38;;;;;;;14.27;10.07;;;;;;;8.84;63.67;101130.66;4982884;28;102192;-48
2022/01/20 08:55:06;;;;;;;13.10;10.77;;;;;;;8.83;63.88;101128.19;4982572;28;103560;-49
2022/01/20 08:57:32;;;;;;;13.10;10.63;;;;;;;8.83;63.35;101115.44;4984239;28;102543;-48
2022/01/20 08:59:59;;;;;;;13.07;10.40;;;;;;;8.84;63.26;101119.81;4980908;28;104013;-49
2022/01/20 09:02:28;;;;;;;13.13;10.02;;;;;;;8.83;63.27;101115.44;4982508;28;102492;-49
2022/01/20 09:04:54;;;;;;;13.13;10.75;;;;;;;8.84;63.33;101110.84;4985789;28;102366;-49
2022/01/20 09:07:21;;;;;;;13.30;10.82;;;;;;;8.84;63.42;101100.81;5005749;28;102822;-48
2022/01/20 09:09:48;;;;;;;12.55;10.10;;;;;;;8.85;63.69;101097.03;5011323;28;103879;-48
2022/01/20 09:17:47;;;;;;;13.40;10.27;;;;;;;8.85;63.75;101086.16;5000319;28;102211;-49
2022/01/20 09:20:14;;;;;;;13.70;10.52;;;;;;;8.85;63.80;101074.50;5002267;28;103698;-50
2022/01/20 09:22:41;;;;;;;12.57;10.30;;;;;;;8.86;63.30;101070.69;5008624;28;102831;-48
2022/01/20 09:25:08;;;;;;;14.18;10.82;;;;;;;8.86;63.66;101071.50;5007393;28;103044;-49
2022/01/20 09:27:35;;;;;;;13.95;10.90;;;;;;;8.86;62.93;101055.22;5012436;28;102281;-49
2022/01/20 09:30:10;;;;;;;15.55;11.07;;;;;;;8.88;63.45;101057.72;4999658;28;103965;-48
2022/01/20 09:32:39;;;;;;;13.73;11.20;;;;;;;8.87;63.72;101048.75;5011347;28;102896;-48
2022/01/20 09:35:07;;;;;;;13.00;10.30;;;;;;;8.88;63.15;101038.72;5006855;28;102823;-49
2022/01/20 09:37:38;;;;;;;13.68;9.57;;;;;;;8.88;63.12;101036.81;5014883;28;102084;-48
2022/01/20 09:40:07;;;;;;;11.82;9.68;;;;;;;8.89;63.18;101034.91;5008317;27;103909;-48
2022/01/20 09:42:35;;;;;;;12.13;10.07;;;;;;;8.89;63.12;101027.59;5004999;28;101996;-48
2022/01/20 09:45:01;;;;;;;12.70;10.13;;;;;;;8.89;63.42;101019.44;5003337;28;102358;-48
2022/01/20 09:47:28;;;;;;;14.15;10.02;;;;;;;8.89;63.28;101003.16;5015224;28;102299;-47
2022/01/20 09:49:55;;;;;;;13.52;10.77;;;;;;;8.92;63.49;100984.75;5004962;28;103864;-46
2022/01/20 09:52:24;;;;;;;14.73;9.88;;;;;;;8.92;63.32;100982.03;5001751;28;103835;-48
2022/01/20 09:54:51;;;;;;;13.00;10.23;;;;;;;8.93;63.03;100978.22;5001898;28;102250;-48
2022/01/20 09:57:17;;;;;;;12.70;10.00;;;;;;;8.92;63.43;100979.31;5013192;28;102700;-47
2022/01/20 09:59:45;;;;;;;12.07;9.23;;;;;;;8.93;63.20;100967.38;5001743;28;103819;-49
2022/01/20 10:02:18;;;;;;;11.55;9.85;;;;;;;8.92;63.03;100968.47;5002046;28;102845;-48
2022/01/20 10:04:45;;;;;;;13.18;9.57;;;;;;;8.93;63.61;100961.94;5000476;28;103693;-48
2022/01/20 10:07:14;;;;;;;11.48;9.57;;;;;;;8.94;63.16;100956.25;4971783;28;102210;-49
2022/01/20 10:09:45;;;;;;;12.80;9.55;;;;;;;8.93;63.64;100945.66;5002254;28;103730;-48
2022/01/20 10:12:14;;;;;;;13.70;9.82;;;;;;;8.94;63.24;100944.56;5013306;28;102229;-48
2022/01/20 10:14:42;;;;;;;12.20;9.32;;;;;;;8.95;63.74;100940.81;5000573;28;102325;-50
2022/01/20 10:17:17;;;;;;;11.45;9.27;;;;;;;8.94;62.90;100928.28;5007628;28;102216;-49
2022/01/20 10:19:45;;;;;;;10.80;9.00;;;;;;;8.95;62.96;100935.38;5003914;27;104108;-49
2022/01/20 10:22:14;;;;;;;11.75;9.02;;;;;;;8.94;63.50;100934.53;5002571;28;102299;-49
2022/01/20 10:24:55;;;;;;;11.70;9.15;;;;;;;8.95;62.72;100936.19;4979550;28;102801;-48
2022/01/20 10:27:22;;;;;;;12.05;9.23;;;;;;;8.96;62.60;100934.28;5010645;28;102513;-49
2022/01/20 10:29:55;;;;;;;11.95;8.85;;;;;;;8.96;62.76;100918.00;5007739;28;103921;-48
2022/01/20 10:32:21;;;;;;;12.70;9.63;;;;;;;8.96;63.31;100907.16;5008878;28;102497;-49
2022/01/20 10:34:48;;;;;;;13.18;8.55;;;;;;;8.96;62.61;100901.72;5009856;28;102446;-48
2022/01/20 10:37:17;;;;;;;11.32;8.75;;;;;;;8.96;62.97;100897.09;5012630;28;102275;-48
2022/01/20 10:39:47;;;;;;;10.88;8.73;;;;;;;8.96;62.62;100888.97;4989673;28;105535;-49
2022/01/20 10:42:16;;;;;;;10.70;8.30;;;;;;;8.97;62.61;100884.34;5015577;28;102001;-49
2022/01/20 10:44:45;;;;;;;12.38;9.27;;;;;;;8.97;63.10;100881.63;5007917;28;102840;-48
2022/01/20 10:47:14;;;;;;;11.52;9.00;;;;;;;8.97;63.18;100878.91;5006342;28;102305;-49
2022/01/20 10:49:42;;;;;;;10.70;8.52;;;;;;;8.97;62.83;100876.22;5006740;27;103983;-48
2022/01/20 10:52:11;;;;;;;10.98;8.43;;;;;;;8.98;63.06;100878.69;4982773;28;102177;-49
2022/01/20 10:54:41;;;;;;;10.63;8.43;;;;;;;8.99;63.12;100884.94;5006068;28;102479;-47
2022/01/20 10:57:11;;;;;;;11.38;8.55;;;;;;;9.00;62.93;100878.41;5006569;28;103123;-48
2022/01/20 10:59:50;;;;;;;10.10;7.97;;;;;;;8.99;62.97;100869.47;5004255;28;104642;-54
2022/01/20 11:02:18;;;;;;;9.68;8.35;;;;;;;9.00;63.30;100875.69;5004926;28;102164;-48
2022/01/20 11:04:45;;;;;;;10.60;8.30;;;;;;;9.01;63.21;100871.91;5012754;28;102183;-49
2022/01/20 11:07:12;;;;;;;11.13;8.80;;;;;;;9.00;63.33;100868.38;5002966;28;102304;-48
2022/01/20 11:09:42;;;;;;;10.30;8.52;;;;;;;9.01;62.79;100845.56;5009641;28;103893;-48
2022/01/20 11:12:14;;;;;;;11.07;8.23;;;;;;;9.01;62.88;100839.31;4999570;28;102368;-48
2022/01/20 11:14:42;;;;;;;9.82;7.43;;;;;;;9.02;62.95;100830.13;5002200;28;102228;-48
2022/01/20 11:17:16;;;;;;;10.80;8.47;;;;;;;9.02;62.65;100821.97;5001902;28;102326;-49
2022/01/20 11:19:44;;;;;;;11.32;8.00;;;;;;;9.03;63.27;100820.91;5006340;28;103830;-48
2022/01/20 11:22:12;;;;;;;10.38;7.93;;;;;;;9.04;63.50;100806.25;5013651;28;102654;-48
2022/01/20 11:24:41;;;;;;;11.13;8.05;;;;;;;9.03;62.75;100818.19;5003924;28;102024;-49
2022/01/20 11:27:11;;;;;;;11.20;8.50;;;;;;;9.04;62.77;100811.66;5005869;28;102394;-48
2022/01/20 11:29:42;;;;;;;10.55;8.32;;;;;;;9.03;62.66;100810.03;5003117;28;104097;-50
2022/01/20 11:32:19;;;;;;;10.20;8.30;;;;;;;9.05;63.68;100810.59;5001517;28;102609;-49
2022/01/20 14:47:31;;;;;;;14.25;9.13;;;;;;;8.89;64.74;100631.34;5025697;27;1379101;-92
2022/01/20 14:49:58;;;;;;;11.05;8.55;;;;;;;8.89;64.21;100631.34;5057235;27;102653;-92
2022/01/20 14:52:25;;;;;;;12.07;8.40;;;;;;;8.89;64.21;100623.19;5063406;27;104461;-93
2022/01/20 14:54:52;;;;;;;10.25;7.88;;;;;;;8.90;64.81;100624.00;5062632;27;103617;-93
2022/01/20 14:57:20;;;;;;;10.60;8.15;;;;;;;8.90;64.70;100616.66;5067324;27;102178;-94
2022/01/20 14:59:46;;;;;;;11.30;8.10;;;;;;;8.92;64.70;100618.31;5062632;27;103405;-93
2022/01/20 15:02:13;;;;;;;9.73;8.05;;;;;;;8.93;64.83;100630.81;5064116;27;102755;-94
2022/01/20 15:04:41;;;;;;;11.18;8.32;;;;;;;8.94;65.05;100632.44;5060590;27;101921;-94
2022/01/20 15:07:08;;;;;;;10.40;7.93;;;;;;;8.94;64.81;100629.72;5062815;27;101898;-94
2022/01/20 15:09:34;;;;;;;11.05;8.18;;;;;;;8.95;64.43;100632.19;5061017;27;102175;-94
2022/01/20 15:12:01;;;;;;;10.40;8.23;;;;;;;8.96;64.24;100635.72;5058801;27;101720;-93
2022/01/20 15:14:27;;;;;;;11.10;8.38;;;;;;;8.96;64.23;100635.72;5063119;27;102796;-94
2022/01/20 15:16:54;;;;;;;10.23;8.35;;;;;;;8.96;64.89;100641.16;5061619;27;102076;-96
2022/01/20 15:19:20;;;;;;;10.55;8.50;;;;;;;8.97;65.02;100634.63;5071260;27;102391;-94
2022/01/20 15:21:48;;;;;;;10.70;7.60;;;;;;;8.98;64.09;100628.97;5059056;27;102421;-92
2022/01/20 15:24:15;;;;;;;13.13;8.73;;;;;;;8.98;64.72;100625.41;5058727;27;102522;-91
2022/01/20 15:26:42;;;;;;;11.07;8.60;;;;;;;8.98;64.68;100622.69;5063095;27;102043;-90
2022/01/20 15:29:08;;;;;;;10.60;8.95;;;;;;;8.99;64.94;100624.34;5063994;27;102648;-90
2022/01/20 15:31:36;;;;;;;12.45;8.98;;;;;;;8.99;64.03;100625.16;5064334;27;103085;-90
2022/01/20 15:34:04;;;;;;;10.85;8.90;;;;;;;8.99;64.16;100627.88;5063081;27;102123;-92
2022/01/20 15:36:33;;;;;;;13.45;9.85;;;;;;;9.00;64.90;100625.97;5059361;27;102272;-93
2022/01/20 15:39:03;;;;;;;11.20;8.40;;;;;;;8.99;64.28;100636.00;5063658;27;102396;-94
2022/01/20 15:41:30;;;;;;;12.27;9.10;;;;;;;9.00;64.98;100631.41;5050132;27;104683;-93
2022/01/20 15:43:57;;;;;;;11.93;9.27;;;;;;;9.00;64.96;100631.41;5051057;27;102422;-95
2022/01/20 15:46:23;;;;;;;12.30;9.00;;;;;;;9.00;64.66;100625.97;5051360;22;102579;-49